Nearby METAR (Airport) Reports

 

KPRN - Greenville, Alabama, USA
Distance from station: WNW 17mi, 28km
Updated: Sun, 28-May-2017 7:56pm CDT
Clear
Clear
 Wind from N
Wind: N 3 mph , 6 km/h
Temperature: 79°F , 26°C
Dew Point: 66°F , 19°C
Humidity: 65%
Barometer: 29.95 inHg , 1014.2 hPa
Clouds: Clear
Visibility: 10 miles , 16 km
2017/05/29 00:56 KPRN 290056Z AUTO 35003KT 10SM CLR 26/19 A2995 RMK AO2 SLP135 T02560194
KTOI - Troy, Alabama, USA
Distance from station: ENE 21mi, 34km
Updated: Sun, 28-May-2017 7:53pm CDT
Clear
Clear
 Wind from NW
Wind: NW 6 mph , 9 km/h
Temperature: 79°F , 26°C
Dew Point: 72°F , 22°C
Humidity: 79%
Barometer: 29.96 inHg , 1014.6 hPa
Clouds: Clear
Visibility: 10 miles , 16 km
2017/05/29 00:53 KTOI 290053Z AUTO 32005KT 10SM CLR 26/22 A2996 RMK AO2 SLP140 T02560217
K79J - Andalusia/Opp Ar, Alabama, USA
Distance from station: S 29mi, 47km
Updated: Sun, 28-May-2017 7:56pm CDT
Clear
Clear
 Wind from SW
Wind: SW 5 mph , 7 km/h
Temperature: 81°F , 27°C
Heat Index: 85°F , 29°C
Dew Point: 72°F , 22°C
Humidity: 74%
Barometer: 29.93 inHg , 1013.5 hPa
Clouds: Clear
Visibility: 10 miles , 16 km
2017/05/29 00:56 K79J 290056Z AUTO 23004KT 10SM CLR 27/22 A2993 RMK AO2 SLP129 T02670222
 
KMGM - Montgomery, Alabama, USA
Distance from station: N 39mi, 63km
Updated: Sun, 28-May-2017 7:53pm CDT
Clear
Clear
 Wind from calm
Wind: Calm
Temperature: 79°F , 26°C
Dew Point: 66°F , 19°C
Humidity: 65%
Barometer: 29.93 inHg , 1013.5 hPa
Clouds: Clear
Visibility: 10 miles , 16 km
2017/05/29 00:53 KMGM 290053Z 00000KT 10SM CLR 26/19 A2993 RMK AO2 SLP133 T02610194 $
KMXF - Maxwell Afb/Mgm, Alabama, USA
Distance from station: N 44mi, 70km
Updated: Sun, 28-May-2017 7:58pm CDT
Few Clouds
Few Clouds
 Wind from SW
Wind: SW 3 mph , 6 km/h
Temperature: 77°F , 25°C
Dew Point: 70°F , 21°C
Humidity: 79%
Barometer: 29.93 inHg , 1013.5 hPa
Clouds: Few Clouds
Visibility: 10 miles , 16 km
Cloud details: Few Clouds 21000 ft
2017/05/29 00:58 KMXF 290058Z AUTO 22003KT 10SM FEW210 25/21 A2993 RMK AO2 SLP136 T02510213
KLOR - Lowe Ahp/Ft. Ruc, Alabama, USA
Distance from station: SE 44mi, 71km
Updated: Sun, 28-May-2017 7:58pm CDT
Clear
Clear
 Wind from SW
Wind: SW 7 mph , 11 km/h
Temperature: 77°F , 25°C
Dew Point: 72°F , 22°C
Humidity: 83%
Barometer: 29.93 inHg , 1013.5 hPa
Clouds: Clear
Visibility: 10 miles , 16 km
2017/05/29 00:58 KLOR 290058Z AUTO 22006KT 10SM CLR 25/22 A2993 RMK AO2 SLP116 T02520222
 
KGZH - Evergreen, Alabama, USA
Distance from station: WSW 46mi, 75km
Updated: Sun, 28-May-2017 7:53pm CDT
Clear
Clear
 Wind from S
Wind: S 7 mph , 11 km/h
Temperature: 79°F , 26°C
Dew Point: 70°F , 21°C
Humidity: 74%
Barometer: 29.92 inHg , 1013.2 hPa
Clouds: Clear
Visibility: 10 miles , 16 km
2017/05/29 00:53 KGZH 290053Z AUTO 19006KT 10SM CLR 26/21 A2992 RMK AO2 SLP127 T02560211
K0J4 - Florala Muni, Alabama, USA
Distance from station: S 47mi, 76km
Updated: Sun, 28-May-2017 7:58pm CDT
Clear
Clear
 Wind from SW
Wind: SW 9 mph , 15 km/h
Temperature: 77°F , 25°C
Dew Point: 70°F , 21°C
Humidity: 79%
Barometer: 29.95 inHg , 1014.2 hPa
Clouds: Clear
Visibility: 10 miles , 16 km
2017/05/29 00:58 K0J4 290058Z AUTO 22008KT 10SM CLR 25/21 A2995 RMK AO2 SLP136 T02500211
KOZR - Ozark/Cairns Aaf, Alabama, USA
Distance from station: SE 49mi, 78km
Updated: Sun, 28-May-2017 7:56pm CDT
Clear
Clear
 Wind from SSW
Wind: SSW 9 mph , 15 km/h
Temperature: 77°F , 25°C
Dew Point: 73°F , 23°C
Humidity: 89%
Barometer: 29.93 inHg , 1013.5 hPa
Clouds: Clear
Visibility: 10 miles , 16 km
2017/05/29 00:56 KOZR 290056Z AUTO 21008KT 10SM CLR 25/23 A2993 RMK AO2 SLP135 T02520227
 
KHEY - Ft Rucker/Hanche, Alabama, USA
Distance from station: ESE 49mi, 79km
Updated: Sun, 28-May-2017 8:06pm CDT
Haze, Clear
Haze, Clear
 Wind from SW
Wind: SW 6 mph , 9 km/h
Temperature: 77°F , 25°C
Dew Point: 73°F , 23°C
Humidity: 89%
Barometer: 29.93 inHg , 1013.5 hPa
Summary: Haze
Clouds: Clear
Visibility: 1 1/2 miles , 2 km
2017/05/29 01:06 KHEY 290106Z AUTO 22005KT 1 1/2SM HZ CLR 25/23 A2993 RMK AO2 VIS 1V1 1/2 SLP134
KDHN - Dothan, Alabama, USA
Distance from station: ESE 61mi, 97km
Updated: Sun, 28-May-2017 7:53pm CDT
Clear
Clear
 Wind from SW
Wind: SW 10 mph , 17 km/h
Temperature: 79°F , 26°C
Dew Point: 73°F , 23°C
Humidity: 84%
Barometer: 29.97 inHg , 1014.9 hPa
Clouds: Clear
Visibility: 10 miles , 16 km
2017/05/29 00:53 KDHN 290053Z AUTO 22009KT 10SM CLR 26/23 A2997 RMK AO2 SLP141 T02560233
KCEW - Crestview, Florida, USA
Distance from station: S 66mi, 107km
Updated: Sun, 28-May-2017 7:53pm CDT
Clear
Clear
 Wind from SSW
Wind: SSW 6 mph , 9 km/h
Temperature: 77°F , 25°C
Dew Point: 72°F , 22°C
Humidity: 83%
Barometer: 29.95 inHg , 1014.2 hPa
Clouds: Clear
Visibility: 10 miles , 16 km
2017/05/29 00:53 KCEW 290053Z AUTO 20005KT 10SM CLR 25/22 A2995 RMK AO2 SLP140 T02500217
 
KEUF - Eufaula, Alabama, USA
Distance from station: ENE 73mi, 118km
Updated: Sun, 28-May-2017 7:58pm CDT
Clear
Clear
 Wind from WSW
Wind: WSW 3 mph , 6 km/h
Temperature: 81°F , 27°C
Heat Index: 85°F , 29°C
Dew Point: 70°F , 21°C
Humidity: 70%
Barometer: 29.93 inHg , 1013.5 hPa
Clouds: Clear
Visibility: 10 miles , 16 km
2017/05/29 00:58 KEUF 290058Z AUTO 25003KT 10SM CLR 27/21 A2993 RMK AO2 SLP130 T02670211
KJKA - Gulf Shores, Alabama, USA
Distance from station: SSW 132mi, 212km
Updated: Sun, 28-May-2017 8:35pm CDT
Partly cloudy
Partly cloudy
 Wind from SSW
Wind: SSW 9 mph , 15 km/h, Gust: 17 mph , 28 km/h
Temperature: 79°F , 26°C
Dew Point: 79°F , 26°C
Humidity: 100%
Barometer: 29.93 inHg , 1013.5 hPa
Clouds: Partly cloudy
Visibility: 10 miles , 16 km
Cloud details: Partly cloudy 1100 ft
2017/05/29 01:35 KJKA 290135Z AUTO 20008G15KT 10SM SCT011 26/26 A2993 RMK AO2 T02550255
KLSF - Ft Benning/Colum, Georgia, USA
Distance from station: SNE 89mi, 143km
Updated: Sun, 28-May-2017 7:58pm CDT
Few Clouds
Few Clouds
 Wind from calm
Wind: Calm
Temperature: 79°F , 26°C
Dew Point: 73°F , 23°C
Humidity: 84%
Barometer: 29.91 inHg , 1012.9 hPa
Clouds: Few Clouds
Visibility: 10 miles , 16 km
Cloud details: Few Clouds 21000 ft
2017/05/29 00:58 KLSF 290058Z AUTO 00000KT 10SM FEW210 26/23 A2991 RMK AO2 SLP131 T02550226
 
KMOB - Mobile/Bates, Alabama, USA
Distance from station: SW 125mi, 202km
Updated: Sun, 28-May-2017 8:31pm CDT
Mostly cloudy
Mostly cloudy
 Wind from S
Wind: S 13 mph , 20 km/h
Temperature: 79°F , 26°C
Dew Point: 73°F , 23°C
Humidity: 84%
Barometer: 29.93 inHg , 1013.5 hPa
Clouds: Mostly cloudy
Visibility: 10 miles , 16 km
Cloud details: Mostly cloudy 1200 ft
2017/05/29 01:31 KMOB 290131Z 19011KT 10SM BKN012 26/23 A2993 RMK AO2 T02560228
KNMM - Meridian Nas, Mississippi, USA
Distance from station: WNW 151mi, 243km
Updated: Sun, 28-May-2017 7:56pm CDT
Mostly cloudy
Mostly cloudy
 Wind from calm
Wind: Calm
Temperature: 79°F , 26°C
Dew Point: 66°F , 19°C
Humidity: 65%
Barometer: 29.95 inHg , 1014.2 hPa
Clouds: Mostly cloudy
Visibility: 10 miles , 16 km
Cloud details: Few Clouds 5500 ft
Few Clouds 16000 ft
Mostly cloudy 25000 ft
2017/05/29 00:56 KNMM 290056Z 00000KT 10SM FEW055 FEW160 BKN250 26/19 A2995 RMK AO2 SLP150 T02610194 $
KQHY - Hurlbert (Ft Walton Bch), Florida, USA
Distance from station: S 94mi, 151km
Updated: Wed, 17-May-2017 8:56am CDT
NOT Current
Clear
Clear
 Wind from SSE
Wind: SSE 5 mph , 7 km/h
Temperature: 79°F , 26°C
Dew Point: 73°F , 23°C
Humidity: 84%
Barometer: 30.05 inHg , 1017.6 hPa
Clouds: Clear
Visibility: 10 miles , 16 km
2017/05/17 13:56 KQHY 171356Z AUTO 15004KT 10SM CLR 26/23 A3005 RMK AO2 SLP182 T02640233 $
 
KTCL - Tuscaloosa, Alabama, USA
Distance from station: NNW 129mi, 207km
Updated: Sun, 28-May-2017 7:53pm CDT
Clear
Clear
 Wind from calm
Wind: Calm
Temperature: 79°F , 26°C
Dew Point: 66°F , 19°C
Humidity: 65%
Barometer: 29.92 inHg , 1013.2 hPa
Clouds: Clear
Visibility: 10 miles , 16 km
2017/05/29 00:53 KTCL 290053Z 00000KT 10SM CLR 26/19 A2992 RMK AO2 SLP130 T02610189
KECP - Panama City, Florida, USA
Distance from station: SSE 122mi, 196km
Updated: Sun, 28-May-2017 8:29pm CDT
Mostly cloudy
Mostly cloudy
 Wind from S
Wind: S 7 mph , 11 km/h
Temperature: 79°F , 26°C
Dew Point: 75°F , 24°C
Humidity: 89%
Barometer: 29.96 inHg , 1014.6 hPa
Clouds: Mostly cloudy
Visibility: 10 miles , 16 km
Cloud details: Mostly cloudy 900 ft
2017/05/29 01:29 KECP 290129Z 19006KT 10SM BKN009 26/24 A2996 RMK AO2 CIG 008V012 T02560239
KCBM - Columbus Afb, Mississippi, USA
Distance from station: NW 175mi, 282km
Updated: Sun, 28-May-2017 7:58pm CDT
Clear
Clear
 Wind from W
Wind: W 17 mph , 28 km/h
Temperature: 82°F , 28°C
Heat Index: 85°F , 29°C
Dew Point: 68°F , 20°C
Humidity: 62%
Barometer: 29.93 inHg , 1013.5 hPa
Clouds: Clear
Visibility: 10 miles , 16 km
2017/05/29 00:58 KCBM 290058Z AUTO 28015KT 10SM CLR 28/20 A2993 RMK AO2 SLP136
 
KBHM - Birmingham, Alabama, USA
Distance from station: N 132mi, 212km
Updated: Sun, 28-May-2017 7:53pm CDT
Overcast
Overcast
 Wind from W
Wind: W 3 mph , 6 km/h
Temperature: 79°F , 26°C
Dew Point: 66°F , 19°C
Humidity: 65%
Barometer: 29.95 inHg , 1014.2 hPa
Clouds: Overcast
Visibility: 10 miles , 16 km
Cloud details: Overcast 25000 ft
2017/05/29 00:53 KBHM 290053Z 28003KT 10SM OVC250 26/19 A2995 RMK AO2 SLP135 T02560189
KAAF - Apalachicola, Florida, USA
Distance from station: SSE 156mi, 250km
Updated: Sun, 28-May-2017 7:53pm CDT
Mostly cloudy
Mostly cloudy
 Wind from W
Wind: W 14 mph , 22 km/h
Temperature: 81°F , 27°C
Heat Index: 89°F , 32°C
Dew Point: 79°F , 26°C
Humidity: 94%
Barometer: 29.98 inHg , 1015.2 hPa
Clouds: Mostly cloudy
Visibility: 10 miles , 16 km
Cloud details: Mostly cloudy 1200 ft
2017/05/29 00:53 KAAF 290053Z AUTO 26012KT 10SM BKN012 27/26 A2998 RMK AO2 SLP153 T02670256 TSNO $
KATL - Atlanta, Georgia, USA
Distance from station: NE 177mi, 287km
Updated: Sun, 28-May-2017 7:52pm CDT
Mostly cloudy
Mostly cloudy
 Wind from W
Wind: W 7 mph , 11 km/h
Temperature: 77°F , 25°C
Dew Point: 66°F , 19°C
Humidity: 69%
Barometer: 29.93 inHg , 1013.5 hPa
Clouds: Mostly cloudy
Visibility: 10 miles , 16 km
Cloud details: Few Clouds 3400 ft
Partly cloudy 20000 ft
Mostly cloudy 25000 ft
2017/05/29 00:52 KATL 290052Z 26006KT 10SM FEW034 SCT200 BKN250 25/19 A2993 RMK AO2 SLP128 T02500189
 
KGPT - Gulfport, Mississippi, USA
Distance from station: SW 192mi, 309km
Updated: Sun, 28-May-2017 8:41pm CDT
Partly cloudy
Partly cloudy
 Wind from S
Wind: S 12 mph , 19 km/h, Gust: 23 mph , 37 km/h
Temperature: 81°F , 27°C
Heat Index: 87°F , 31°C
Dew Point: 75°F , 24°C
Humidity: 84%
Barometer: 29.92 inHg , 1013.2 hPa
Clouds: Partly cloudy
Visibility: 8 miles , 13 km
Cloud details: Partly cloudy 1700 ft
2017/05/29 01:41 KGPT 290141Z 18010G20KT 8SM SCT017 27/24 A2992 RMK AO2 T02720244 $
KNEW - New Orleans/Lake, Louisiana, USA
Distance from station: SW 255mi, 410km
Updated: Sun, 28-May-2017 7:53pm CDT
Clear
Clear
 Wind from S
Wind: S 16 mph , 26 km/h
Temperature: 82°F , 28°C
Heat Index: 89°F , 32°C
Dew Point: 75°F , 24°C
Humidity: 79%
Barometer: 29.91 inHg , 1012.9 hPa
Clouds: Clear
Visibility: 8 miles , 13 km
2017/05/29 00:53 KNEW 290053Z 17014KT 8SM CLR 28/24 A2991 RMK AO2 SLP121 T02780239
KP92 - Salt Point, Louisiana, USA
Distance from station: SW 347mi, 559km
Updated: Sun, 28-May-2017 7:53pm CDT

 Wind from varies
Wind: varies 6 mph , 9 km/h
Temperature: 81°F , 27°C
Heat Index: 87°F , 31°C
Dew Point: 75°F , 24°C
Humidity: 84%
Barometer: 29.85 inHg , 1010.8 hPa
2017/05/29 00:53 KP92 290053Z AUTO VRB05KT 27/24 A2985 RMK AO1 SLP108 T02670239 $